Beersheba, Israel
Current Conditions -  °F | °C
As of 7:20 PM on Sunday 21 Dec 2014 (Local Time) from LLBG Reporting Station
Clear Clear  
Wind Chill: 59°   Ceiling: Unl
Heat Index: 59°   Visibility: 6mi
Dew Point: 52°   Wind: 3mph
Humidity: 77%   Direction: NA
Pressure: 30.15"   Gusts: NA
Location:  31.25°N, 34.8°E
Report Text: LLBG 211620Z VRB03KT CAVOK 15/11 Q1021 NOSIG RMK FEW090
Loading
Personal Weather Stations






























Interactive Weather Map New forecast layout! Learn more

10-Day Weather Forecast

Advertisements
Track Severe Weather on mobile